createdAt,value
2024-01-17T00:01:07.619Z,6.93
2024-01-17T00:06:12.020Z,10.10
2024-01-17T00:11:16.958Z,9.20
2024-01-17T00:16:23.994Z,9.07
2024-01-17T00:21:27.411Z,11.13
2024-01-17T00:26:32.086Z,7.40
2024-01-17T00:31:35.711Z,8.53
2024-01-17T00:36:39.084Z,8.47
2024-01-17T00:41:43.780Z,8.13
2024-01-17T00:46:47.706Z,10.47
2024-01-17T00:51:51.011Z,7.47
2024-01-17T00:56:55.879Z,8.03
2024-01-17T01:01:59.413Z,7.40
2024-01-17T01:07:02.887Z,8.43
2024-01-17T01:12:09.008Z,13.33
2024-01-17T01:17:26.162Z,8.50
2024-01-17T01:22:48.550Z,8.73
2024-01-17T01:28:13.286Z,8.93
2024-01-17T01:33:36.302Z,8.07
2024-01-17T01:38:44.508Z,6.23
2024-01-17T01:43:54.845Z,11.63
2024-01-17T01:49:00.599Z,8.57
2024-01-17T01:54:06.691Z,8.87
2024-01-17T01:59:12.373Z,16.27
2024-01-17T02:04:17.296Z,7.33
2024-01-17T02:09:20.702Z,8.33
2024-01-17T02:14:26.666Z,10.17
2024-01-17T02:19:30.216Z,9.73
2024-01-17T02:24:35.061Z,7.20
2024-01-17T02:29:38.990Z,9.57
2024-01-17T02:34:42.732Z,10.70
2024-01-17T02:39:47.478Z,9.67
2024-01-17T02:44:52.219Z,9.57
2024-01-17T02:49:55.612Z,8.37
2024-01-17T02:55:00.465Z,7.50
2024-01-17T03:00:03.813Z,8.53
2024-01-17T03:05:08.931Z,11.57
2024-01-17T03:10:14.895Z,8.70
2024-01-17T03:15:18.106Z,8.60
2024-01-17T03:20:21.414Z,6.33
2024-01-17T03:25:26.311Z,12.00
2024-01-17T03:30:29.580Z,7.87
2024-01-17T03:35:32.861Z,9.73
2024-01-17T03:40:38.172Z,8.40
2024-01-17T03:45:41.547Z,7.10
2024-01-17T03:50:44.990Z,8.70
2024-01-17T03:55:50.007Z,7.50
2024-01-17T04:00:53.411Z,7.07
2024-01-17T04:05:56.856Z,8.03
2024-01-17T04:11:01.425Z,8.87
2024-01-17T04:16:05.119Z,7.43
2024-01-17T04:21:08.497Z,10.17
2024-01-17T04:26:21.683Z,9.97
2024-01-17T04:31:26.457Z,7.07
2024-01-17T04:36:30.760Z,7.77
2024-01-17T04:41:35.865Z,6.07
2024-01-17T04:46:39.624Z,8.97
2024-01-17T04:51:45.759Z,10.13
2024-01-17T04:56:55.097Z,15.60
2024-01-17T05:01:59.055Z,10.47
2024-01-17T05:07:02.439Z,8.73
2024-01-17T05:12:09.902Z,11.57
2024-01-17T05:17:15.090Z,9.17
2024-01-17T05:22:18.430Z,10.00
2024-01-17T05:27:23.135Z,9.47
2024-01-17T05:32:26.986Z,7.53
2024-01-17T05:37:30.981Z,9.03
2024-01-17T05:42:35.687Z,9.37
2024-01-17T05:47:39.675Z,13.07
2024-01-17T05:52:44.086Z,7.53
2024-01-17T05:57:52.083Z,9.17
2024-01-17T06:02:55.635Z,7.00
2024-01-17T06:08:01.191Z,15.03
2024-01-17T06:13:06.595Z,9.87
2024-01-17T06:18:09.962Z,9.67
2024-01-17T06:23:13.143Z,8.13
2024-01-17T06:28:19.551Z,10.17
2024-01-17T06:33:23.254Z,10.07
2024-01-17T06:38:26.773Z,9.43
2024-01-17T06:43:31.279Z,11.07
2024-01-17T06:48:34.715Z,8.03
2024-01-17T06:53:38.357Z,8.40
2024-01-17T06:58:46.296Z,8.23
2024-01-17T07:03:49.665Z,8.10
2024-01-17T07:08:53.607Z,10.03
2024-01-17T07:13:58.683Z,8.43
2024-01-17T07:19:03.108Z,7.10
2024-01-17T07:24:06.920Z,12.13
2024-01-17T07:29:12.234Z,8.17
2024-01-17T07:34:20.143Z,11.07
2024-01-17T07:39:28.247Z,8.47
2024-01-17T07:44:34.917Z,11.73
2024-01-17T07:49:40.077Z,8.97
2024-01-17T07:54:43.341Z,13.07
2024-01-17T07:59:48.148Z,7.13
2024-01-17T08:04:53.514Z,7.87
2024-01-17T08:10:00.422Z,6.77
2024-01-17T08:15:09.751Z,10.17
2024-01-17T08:20:17.800Z,8.13
2024-01-17T08:25:21.223Z,5.70
2024-01-17T08:30:26.155Z,7.83
2024-01-17T08:35:31.920Z,12.73
2024-01-17T08:40:36.520Z,6.83
2024-01-17T08:45:41.614Z,6.47
2024-01-17T08:50:45.134Z,10.20
2024-01-17T08:55:49.246Z,9.80
2024-01-17T09:00:54.027Z,10.03
2024-01-17T09:05:57.395Z,7.87
2024-01-17T09:11:00.859Z,6.63
2024-01-17T09:16:06.739Z,11.13
2024-01-17T09:21:10.798Z,7.07
2024-01-17T09:26:14.982Z,8.60
2024-01-17T09:31:21.679Z,5.93
2024-01-17T09:36:24.910Z,8.20
2024-01-17T09:41:28.439Z,7.80
2024-01-17T09:46:37.088Z,8.83
2024-01-17T09:51:40.708Z,6.37
2024-01-17T09:56:45.786Z,12.07
2024-01-17T10:01:50.972Z,10.93
2024-01-17T10:06:57.300Z,9.13
2024-01-17T10:12:00.985Z,7.37
2024-01-17T10:17:07.423Z,6.73
2024-01-17T10:22:12.115Z,10.30
2024-01-17T10:27:15.523Z,7.00
2024-01-17T10:32:21.448Z,8.30
2024-01-17T10:37:25.599Z,9.07
2024-01-17T10:42:28.854Z,8.73
2024-01-17T10:47:34.229Z,8.33
2024-01-17T10:52:42.488Z,7.80
2024-01-17T10:57:55.008Z,7.73
2024-01-17T11:03:02.033Z,9.73
2024-01-17T11:08:09.327Z,10.90
2024-01-17T11:13:13.609Z,8.23
2024-01-17T11:18:19.138Z,6.10
2024-01-17T11:23:30.157Z,9.77
2024-01-17T11:28:43.495Z,7.83
2024-01-17T11:33:49.715Z,9.30
2024-01-17T11:38:53.008Z,8.03
2024-01-17T11:43:57.364Z,11.50
2024-01-17T11:49:01.944Z,13.57
2024-01-17T11:54:06.811Z,8.13
2024-01-17T11:59:14.330Z,7.13
2024-01-17T12:04:21.131Z,10.67
2024-01-17T12:09:27.020Z,9.37
2024-01-17T12:14:36.553Z,9.10
2024-01-17T12:19:42.115Z,6.67
2024-01-17T12:24:50.939Z,9.90
2024-01-17T12:29:56.421Z,9.67
2024-01-17T12:35:01.614Z,7.67
2024-01-17T12:40:06.345Z,6.13
2024-01-17T12:45:11.724Z,6.70
2024-01-17T12:50:17.335Z,6.23
2024-01-17T12:55:24.250Z,6.20
2024-01-17T13:00:29.124Z,8.27
2024-01-17T13:05:34.352Z,6.73
2024-01-17T13:10:38.178Z,7.13
2024-01-17T13:15:42.604Z,9.53
2024-01-17T13:20:47.641Z,9.33
2024-01-17T13:25:51.326Z,9.00
2024-01-17T13:30:54.527Z,7.03
2024-01-17T13:35:59.274Z,7.80
2024-01-17T13:41:03.217Z,6.47
2024-01-17T13:46:06.778Z,8.37
2024-01-17T13:51:15.674Z,9.70
2024-01-17T13:56:19.267Z,6.87
2024-01-17T14:01:22.527Z,6.03
2024-01-17T14:06:27.448Z,6.43
2024-01-17T14:11:30.810Z,7.57
2024-01-17T14:16:34.640Z,8.67
2024-01-17T14:21:39.942Z,12.03
2024-01-17T14:26:43.643Z,6.97
2024-01-17T14:31:48.670Z,8.37
2024-01-17T14:36:58.534Z,7.83
2024-01-17T14:42:02.262Z,8.90
2024-01-17T14:47:14.696Z,9.03
2024-01-17T14:52:20.092Z,10.50
2024-01-17T14:57:23.910Z,8.83
2024-01-17T15:02:27.122Z,9.20
2024-01-17T15:07:32.090Z,10.10
2024-01-17T15:12:41.654Z,10.00
2024-01-17T15:17:46.486Z,11.73
2024-01-17T15:22:51.343Z,10.33
2024-01-17T15:27:57.997Z,10.10
2024-01-17T15:33:01.536Z,10.23
2024-01-17T15:38:09.377Z,13.87
2024-01-17T15:43:13.904Z,12.53
2024-01-17T15:48:18.470Z,10.27
2024-01-17T15:53:23.306Z,12.10
2024-01-17T15:58:27.134Z,10.70
2024-01-17T16:03:30.516Z,13.90
2024-01-17T16:08:35.675Z,12.00
2024-01-17T16:13:39.170Z,12.70
2024-01-17T16:18:44.947Z,10.50
2024-01-17T16:23:50.194Z,12.67
2024-01-17T16:28:54.251Z,10.70
2024-01-17T16:33:57.635Z,11.20
2024-01-17T16:39:03.760Z,11.07
2024-01-17T16:44:11.029Z,9.47
2024-01-17T16:49:16.379Z,11.33
2024-01-17T16:54:22.151Z,10.17
2024-01-17T16:59:25.691Z,11.53
2024-01-17T17:04:29.118Z,10.00
2024-01-17T17:09:34.209Z,13.10
2024-01-17T17:14:37.583Z,10.63
2024-01-17T17:19:42.367Z,12.23
2024-01-17T17:24:47.523Z,13.77
2024-01-17T17:29:51.155Z,12.97
2024-01-17T17:34:54.979Z,13.40
2024-01-17T17:40:00.803Z,16.47
2024-01-17T17:45:04.292Z,18.03
2024-01-17T17:50:12.899Z,15.53
2024-01-17T17:55:18.536Z,14.77
2024-01-17T18:00:22.293Z,13.90
2024-01-17T18:05:29.409Z,14.50
2024-01-17T18:10:40.690Z,15.87
2024-01-17T18:15:44.947Z,17.30
2024-01-17T18:20:49.210Z,19.53
2024-01-17T18:25:54.085Z,19.53
2024-01-17T18:30:58.393Z,20.83
2024-01-17T18:36:02.028Z,18.17
2024-01-17T18:41:09.444Z,16.63
2024-01-17T18:46:13.823Z,18.80
2024-01-17T18:51:17.397Z,18.87
2024-01-17T18:56:22.816Z,18.30
2024-01-17T19:01:29.821Z,19.57
2024-01-17T19:06:35.245Z,19.17
2024-01-17T19:11:40.698Z,19.60
2024-01-17T19:16:44.334Z,19.03
2024-01-17T19:21:49.199Z,19.43
2024-01-17T19:26:54.891Z,23.33
2024-01-17T19:31:58.807Z,21.93
2024-01-17T19:37:04.507Z,23.87
2024-01-17T19:42:11.733Z,22.87
2024-01-17T19:47:15.101Z,42.50
2024-01-17T19:52:26.945Z,24.90
2024-01-17T19:57:32.688Z,27.03
2024-01-17T20:02:36.377Z,24.13
2024-01-17T20:07:40.125Z,22.37
2024-01-17T20:12:44.883Z,23.17
2024-01-17T20:17:52.844Z,24.23
2024-01-17T20:22:57.521Z,23.27
2024-01-17T20:28:07.584Z,23.97
2024-01-17T20:33:10.974Z,25.40
2024-01-17T20:38:14.977Z,21.80
2024-01-17T20:48:31.120Z,22.33
2024-01-17T20:53:34.827Z,23.37
2024-01-17T20:58:39.742Z,27.70
2024-01-17T21:03:43.490Z,24.40
2024-01-17T21:08:55.139Z,26.33
2024-01-17T21:14:02.903Z,25.77
2024-01-17T21:19:10.056Z,25.20
2024-01-17T21:24:16.066Z,22.77
2024-01-17T21:29:23.259Z,24.40
2024-01-17T21:34:29.984Z,23.63
2024-01-17T21:39:44.140Z,22.53
2024-01-17T21:44:49.218Z,20.83
2024-01-17T21:49:56.365Z,20.37
2024-01-17T21:55:00.862Z,23.63
2024-01-17T22:00:06.304Z,21.93
2024-01-17T22:05:11.989Z,20.67
2024-01-17T22:10:17.590Z,19.07
2024-01-17T22:15:23.645Z,21.20
2024-01-17T22:20:31.004Z,21.23
2024-01-17T22:25:38.475Z,21.93
2024-01-17T22:30:44.537Z,22.33
2024-01-17T22:35:48.170Z,25.63
2024-01-17T22:40:54.927Z,24.97
2024-01-17T22:46:00.031Z,27.03
2024-01-17T22:51:04.071Z,25.37
2024-01-17T22:56:08.075Z,26.33
2024-01-17T23:01:13.122Z,25.03
2024-01-17T23:06:17.812Z,28.00
2024-01-17T23:11:24.974Z,29.20
2024-01-17T23:16:30.931Z,31.80
2024-01-17T23:21:34.610Z,28.17
2024-01-17T23:26:39.758Z,33.70
2024-01-17T23:31:45.120Z,28.50
2024-01-17T23:36:49.494Z,33.77
2024-01-17T23:41:53.388Z,29.03
2024-01-17T23:46:58.571Z,26.60
2024-01-17T23:52:02.139Z,25.97
2024-01-17T23:57:06.014Z,30.33
